createdAt,value
2022-09-18T00:01:36.963Z,97656.72
2022-09-18T00:04:07.113Z,97651.59
2022-09-18T00:06:39.090Z,97658.81
2022-09-18T00:09:10.867Z,97666.63
2022-09-18T00:11:46.548Z,97666.97
2022-09-18T00:14:19.577Z,97668.88
2022-09-18T00:16:48.300Z,97668.22
2022-09-18T00:19:17.192Z,97664.38
2022-09-18T00:21:49.048Z,97660.22
2022-09-18T00:24:17.910Z,97661.03
2022-09-18T00:26:47.254Z,97661.13
2022-09-18T00:29:18.073Z,97670.00
2022-09-18T00:31:46.240Z,97666.72
2022-09-18T00:34:15.803Z,97659.69
2022-09-18T00:36:43.956Z,97663.25
2022-09-18T00:39:12.955Z,97652.63
2022-09-18T00:41:43.409Z,97660.25
2022-09-18T00:44:33.308Z,97669.06
2022-09-18T00:47:20.574Z,97655.41
2022-09-18T00:50:07.405Z,97654.97
2022-09-18T00:52:58.041Z,97653.06
2022-09-18T00:55:40.149Z,97658.00
2022-09-18T00:58:08.401Z,97661.28
2022-09-18T01:00:37.201Z,97656.72
2022-09-18T01:03:05.515Z,97657.47
2022-09-18T01:05:57.208Z,97664.06
2022-09-18T01:08:48.994Z,97662.81
2022-09-18T01:11:45.184Z,97663.31
2022-09-18T01:14:44.255Z,97661.91
2022-09-18T01:17:26.560Z,97664.13
2022-09-18T01:20:31.844Z,97655.78
2022-09-18T01:23:59.885Z,97675.09
2022-09-18T01:26:56.230Z,97659.63
2022-09-18T01:30:07.697Z,97660.53
2022-09-18T01:32:55.228Z,97659.97
2022-09-18T01:35:48.360Z,97660.53
2022-09-18T01:38:57.704Z,97644.66
2022-09-18T01:41:29.316Z,97660.38
2022-09-18T01:44:05.868Z,97656.59
2022-09-18T01:46:37.574Z,97656.44
2022-09-18T01:49:20.737Z,97645.59
2022-09-18T01:52:05.251Z,97647.06
2022-09-18T01:54:36.385Z,97649.84
2022-09-18T01:57:19.847Z,97638.47
2022-09-18T02:00:02.712Z,97651.81
2022-09-18T02:02:37.714Z,97638.34
2022-09-18T02:05:08.795Z,97639.47
2022-09-18T02:08:02.242Z,97641.34
2022-09-18T02:10:35.494Z,97642.88
2022-09-18T02:13:08.395Z,97641.88
2022-09-18T02:15:40.228Z,97632.50
2022-09-18T02:18:29.095Z,97628.22
2022-09-18T02:21:01.117Z,97635.63
2022-09-18T02:23:29.992Z,97624.72
2022-09-18T02:26:04.670Z,97636.69
2022-09-18T02:28:34.800Z,97625.97
2022-09-18T02:31:03.312Z,97625.09
2022-09-18T02:33:35.877Z,97631.28
2022-09-18T02:36:12.388Z,97633.03
2022-09-18T02:39:14.956Z,97634.13
2022-09-18T02:42:15.190Z,97638.06
2022-09-18T02:45:07.029Z,97633.13
2022-09-18T02:47:40.618Z,97637.94
2022-09-18T02:50:18.014Z,97637.75
2022-09-18T02:53:13.208Z,97642.53
2022-09-18T02:55:58.591Z,97639.16
2022-09-18T02:58:55.120Z,97632.78
2022-09-18T03:01:26.860Z,97636.44
2022-09-18T03:03:55.790Z,97635.41
2022-09-18T03:06:36.617Z,97634.75
2022-09-18T03:09:04.646Z,97631.91
2022-09-18T03:11:32.490Z,97620.19
2022-09-18T03:14:00.202Z,97618.00
2022-09-18T03:16:28.059Z,97613.03
2022-09-18T03:18:55.958Z,97607.78
2022-09-18T03:21:23.861Z,97605.31
2022-09-18T03:23:52.025Z,97613.00
2022-09-18T03:26:26.127Z,97612.44
2022-09-18T03:28:54.775Z,97610.22
2022-09-18T03:31:22.578Z,97604.22
2022-09-18T03:33:50.970Z,97608.03
2022-09-18T03:36:20.209Z,97616.38
2022-09-18T03:38:47.926Z,97610.16
2022-09-18T03:41:15.750Z,97619.53
2022-09-18T03:43:43.867Z,97614.50
2022-09-18T03:46:12.865Z,97615.50
2022-09-18T03:48:40.698Z,97618.41
2022-09-18T03:51:08.501Z,97615.94
2022-09-18T03:53:36.246Z,97632.25
2022-09-18T03:56:18.699Z,97632.03
2022-09-18T03:59:01.097Z,97638.44
2022-09-18T04:01:47.503Z,97646.09
2022-09-18T04:04:28.492Z,97634.25
2022-09-18T04:07:14.513Z,97638.41
2022-09-18T04:09:51.093Z,97637.03
2022-09-18T04:12:18.879Z,97633.22
2022-09-18T04:14:55.314Z,97640.25
2022-09-18T04:17:23.920Z,97633.00
2022-09-18T04:19:53.754Z,97642.50
2022-09-18T04:22:22.865Z,97633.66
2022-09-18T04:24:50.670Z,97636.28
2022-09-18T04:27:18.661Z,97634.63
2022-09-18T04:29:46.501Z,97631.31
2022-09-18T04:32:16.951Z,97640.41
2022-09-18T04:34:44.792Z,97630.88
2022-09-18T04:37:12.985Z,97627.81
2022-09-18T04:39:40.954Z,97625.31
2022-09-18T04:42:10.176Z,97625.22
2022-09-18T04:44:39.108Z,97635.19
2022-09-18T04:47:08.526Z,97635.06
2022-09-18T04:49:36.306Z,97631.84
2022-09-18T04:52:04.136Z,97627.66
2022-09-18T04:54:32.262Z,97647.97
2022-09-18T04:57:00.114Z,97634.03
2022-09-18T04:59:28.024Z,97643.78
2022-09-18T05:01:59.244Z,97634.75
2022-09-18T05:04:27.544Z,97636.72
2022-09-18T05:07:08.359Z,97651.09
2022-09-18T05:09:37.566Z,97647.34
2022-09-18T05:12:07.268Z,97646.03
2022-09-18T05:14:37.475Z,97656.00
2022-09-18T05:17:08.219Z,97649.28
2022-09-18T05:19:39.493Z,97655.03
2022-09-18T05:22:20.375Z,97658.72
2022-09-18T05:24:51.021Z,97669.53
2022-09-18T05:27:20.628Z,97663.41
2022-09-18T05:29:51.333Z,97670.66
2022-09-18T05:32:23.101Z,97659.41
2022-09-18T05:34:52.162Z,97664.28
2022-09-18T05:37:20.020Z,97655.03
2022-09-18T05:39:52.684Z,97668.69
2022-09-18T05:42:20.841Z,97665.97
2022-09-18T05:44:49.840Z,97667.50
2022-09-18T05:47:22.012Z,97671.38
2022-09-18T05:49:49.813Z,97665.88
2022-09-18T05:52:17.620Z,97674.06
2022-09-18T05:54:45.360Z,97669.69
2022-09-18T05:57:13.126Z,97671.53
2022-09-18T05:59:41.126Z,97673.66
2022-09-18T06:02:10.698Z,97667.63
2022-09-18T06:05:05.389Z,97666.28
2022-09-18T06:07:33.299Z,97675.25
2022-09-18T06:10:02.826Z,97668.59
2022-09-18T06:12:31.484Z,97672.31
2022-09-18T06:14:59.213Z,97680.47
2022-09-18T06:17:27.638Z,97684.72
2022-09-18T06:20:00.009Z,97686.47
2022-09-18T06:22:27.840Z,97688.81
2022-09-18T06:24:58.697Z,97691.50
2022-09-18T06:27:33.834Z,97691.50
2022-09-18T06:30:02.111Z,97693.34
2022-09-18T06:32:33.798Z,97687.13
2022-09-18T06:35:01.641Z,97684.25
2022-09-18T06:37:29.625Z,97690.25
2022-09-18T06:40:25.654Z,97684.06
2022-09-18T06:43:13.661Z,97685.72
2022-09-18T06:46:11.762Z,97687.47
2022-09-18T06:48:44.893Z,97688.28
2022-09-18T06:51:12.954Z,97687.78
2022-09-18T06:54:06.617Z,97692.59
2022-09-18T06:56:34.562Z,97692.03
2022-09-18T06:59:02.502Z,97695.31
2022-09-18T07:01:36.635Z,97692.25
2022-09-18T07:04:11.294Z,97690.28
2022-09-18T07:06:47.167Z,97691.66
2022-09-18T07:09:15.746Z,97693.25
2022-09-18T07:12:01.370Z,97691.50
2022-09-18T07:14:49.435Z,97691.00
2022-09-18T07:17:19.239Z,97678.47
2022-09-18T07:19:53.724Z,97682.34
2022-09-18T07:22:25.098Z,97689.75
2022-09-18T07:24:52.908Z,97692.97
2022-09-18T07:27:20.633Z,97691.66
2022-09-18T07:29:50.876Z,97698.00
2022-09-18T07:32:22.597Z,97689.19
2022-09-18T07:34:50.630Z,97699.72
2022-09-18T07:37:29.565Z,97685.25
2022-09-18T07:40:23.471Z,97696.94
2022-09-18T07:43:10.914Z,97682.16
2022-09-18T07:45:45.498Z,97690.72
2022-09-18T07:48:13.931Z,97691.25
2022-09-18T07:50:47.483Z,97699.03
2022-09-18T07:53:17.814Z,97702.72
2022-09-18T07:55:50.169Z,97691.19
2022-09-18T07:58:19.385Z,97700.38
2022-09-18T08:01:07.302Z,97705.44
2022-09-18T08:03:41.996Z,97693.31
2022-09-18T08:06:12.965Z,97702.13
2022-09-18T08:09:07.284Z,97712.19
2022-09-18T08:11:54.148Z,97714.47
2022-09-18T08:14:30.128Z,97722.38
2022-09-18T08:17:24.063Z,97712.31
2022-09-18T08:20:10.501Z,97719.97
2022-09-18T08:22:43.632Z,97719.53
2022-09-18T08:25:12.961Z,97726.66
2022-09-18T08:27:43.619Z,97718.16
2022-09-18T08:30:15.719Z,97726.25
2022-09-18T08:32:45.559Z,97724.78
2022-09-18T08:35:13.354Z,97721.72
2022-09-18T08:37:48.842Z,97728.56
2022-09-18T08:41:06.529Z,97727.38
2022-09-18T08:44:08.546Z,97723.78
2022-09-18T08:46:49.541Z,97723.25
2022-09-18T08:49:46.869Z,97729.50
2022-09-18T08:52:23.379Z,97733.59
2022-09-18T08:55:14.750Z,97724.41
2022-09-18T08:58:16.792Z,97721.66
2022-09-18T09:00:56.521Z,97731.81
2022-09-18T09:03:54.738Z,97718.72
2022-09-18T09:06:38.807Z,97726.44
2022-09-18T09:09:31.528Z,97727.66
2022-09-18T09:12:46.168Z,97728.44
2022-09-18T09:15:28.939Z,97734.19
2022-09-18T09:18:17.473Z,97724.16
2022-09-18T09:20:57.917Z,97724.72
2022-09-18T09:24:23.373Z,97726.56
2022-09-18T09:27:27.714Z,97720.66
2022-09-18T09:30:28.090Z,97713.53
2022-09-18T09:34:05.182Z,97720.63
2022-09-18T09:36:59.119Z,97732.63
2022-09-18T09:39:48.068Z,97711.66
2022-09-18T09:42:42.344Z,97717.78
2022-09-18T09:45:35.946Z,97721.28
2022-09-18T09:48:42.219Z,97722.56
2022-09-18T09:51:50.155Z,97722.56
2022-09-18T09:54:36.940Z,97709.28
2022-09-18T09:57:54.840Z,97703.34
2022-09-18T10:00:24.500Z,97714.19
2022-09-18T10:03:58.694Z,97709.06
2022-09-18T10:07:23.418Z,97737.25
2022-09-18T10:10:22.135Z,97709.13
2022-09-18T10:13:09.440Z,97713.56
2022-09-18T10:15:46.789Z,97705.13
2022-09-18T10:18:33.885Z,97698.75
2022-09-18T10:21:22.549Z,97709.00
2022-09-18T10:24:11.168Z,97705.69
2022-09-18T10:26:58.772Z,97706.44
2022-09-18T10:29:26.778Z,97698.28
2022-09-18T10:32:01.349Z,97699.47
2022-09-18T10:34:37.630Z,97698.28
2022-09-18T10:37:06.407Z,97690.94
2022-09-18T10:39:38.982Z,97690.47
2022-09-18T10:42:18.274Z,97681.53
2022-09-18T10:45:01.633Z,97677.78
2022-09-18T10:47:36.220Z,97681.28
2022-09-18T10:50:13.311Z,97678.59
2022-09-18T10:52:49.100Z,97681.25
2022-09-18T10:55:27.622Z,97681.28
2022-09-18T10:58:13.580Z,97666.19
2022-09-18T11:01:17.093Z,97660.59
2022-09-18T11:04:04.555Z,97651.91
2022-09-18T11:06:38.245Z,97654.78
2022-09-18T11:09:22.040Z,97658.66
2022-09-18T11:11:51.461Z,97664.72
2022-09-18T11:14:31.851Z,97662.50
2022-09-18T11:17:31.096Z,97641.50
2022-09-18T11:20:04.658Z,97643.28
2022-09-18T11:22:44.436Z,97653.00
2022-09-18T11:25:38.305Z,97642.31
2022-09-18T11:28:28.500Z,97654.19
2022-09-18T11:31:20.010Z,97647.69
2022-09-18T11:34:00.721Z,97641.03
2022-09-18T11:36:33.757Z,97637.06
2022-09-18T11:39:21.390Z,97626.03
2022-09-18T11:41:55.295Z,97631.00
2022-09-18T11:44:34.541Z,97619.25
2022-09-18T11:47:09.807Z,97622.78
2022-09-18T11:50:00.581Z,97623.91
2022-09-18T11:52:39.320Z,97620.72
2022-09-18T11:55:35.985Z,97631.81
2022-09-18T11:58:16.993Z,97641.38
2022-09-18T12:01:19.220Z,97625.53
2022-09-18T12:04:10.158Z,97624.47
2022-09-18T12:06:56.662Z,97622.69
2022-09-18T12:09:45.444Z,97623.19
2022-09-18T12:12:36.004Z,97621.34
2022-09-18T12:15:19.653Z,97606.97
2022-09-18T12:18:19.818Z,97610.59
2022-09-18T12:21:16.061Z,97600.69
2022-09-18T12:23:44.331Z,97611.00
2022-09-18T12:26:39.962Z,97593.44
2022-09-18T12:29:19.586Z,97601.34
2022-09-18T12:32:22.561Z,97591.22
2022-09-18T12:35:35.867Z,97591.03
2022-09-18T12:38:31.724Z,97580.78
2022-09-18T12:41:48.524Z,97588.66
2022-09-18T12:44:31.218Z,97583.34
2022-09-18T12:47:11.969Z,97586.69
2022-09-18T12:50:23.124Z,97592.53
2022-09-18T12:53:25.016Z,97597.25
2022-09-18T12:56:49.110Z,97579.88
2022-09-18T12:59:52.459Z,97580.31
2022-09-18T13:02:25.904Z,97593.75
2022-09-18T13:05:06.002Z,97600.91
2022-09-18T13:08:10.556Z,97596.69
2022-09-18T13:10:43.536Z,97594.44
2022-09-18T13:13:35.130Z,97590.19
2022-09-18T13:16:22.361Z,97589.44
2022-09-18T13:18:59.353Z,97578.31
2022-09-18T13:21:44.549Z,97604.75
2022-09-18T13:24:20.372Z,97598.44
2022-09-18T13:26:51.102Z,97582.06
2022-09-18T13:30:15.010Z,97585.81
2022-09-18T13:32:43.061Z,97586.88
2022-09-18T13:35:13.835Z,97597.06
2022-09-18T13:37:42.792Z,97575.94
2022-09-18T13:40:40.486Z,97568.72
2022-09-18T13:43:20.713Z,97577.13
2022-09-18T13:45:48.996Z,97580.53
2022-09-18T13:48:45.837Z,97572.38
2022-09-18T13:51:29.538Z,97569.34
2022-09-18T13:54:11.074Z,97566.63
2022-09-18T13:57:05.372Z,97570.69
2022-09-18T13:59:49.695Z,97559.50
2022-09-18T14:02:31.291Z,97559.03
2022-09-18T14:05:41.159Z,97557.78
2022-09-18T14:08:23.553Z,97543.09
2022-09-18T14:11:15.518Z,97548.16
2022-09-18T14:13:58.913Z,97550.31
2022-09-18T14:16:38.859Z,97553.47
2022-09-18T14:19:32.357Z,97554.44
2022-09-18T14:22:01.519Z,97550.84
2022-09-18T14:24:57.711Z,97563.81
2022-09-18T14:27:58.128Z,97556.59
2022-09-18T14:30:31.402Z,97549.84
2022-09-18T14:33:06.207Z,97544.81
2022-09-18T14:35:43.137Z,97535.00
2022-09-18T14:38:26.456Z,97537.22
2022-09-18T14:41:08.900Z,97540.31
2022-09-18T14:43:47.352Z,97539.03
2022-09-18T14:46:21.767Z,97526.94
2022-09-18T14:48:50.487Z,97522.88
2022-09-18T14:51:25.760Z,97519.94
2022-09-18T14:53:57.064Z,97520.81
2022-09-18T14:56:35.352Z,97528.47
2022-09-18T14:59:14.489Z,97521.09
2022-09-18T15:01:42.400Z,97518.66
2022-09-18T15:04:25.967Z,97513.34
2022-09-18T15:06:54.854Z,97508.41
2022-09-18T15:09:33.354Z,97505.50
2022-09-18T15:12:03.170Z,97492.47
2022-09-18T15:14:44.119Z,97497.44
2022-09-18T15:17:27.730Z,97491.03
2022-09-18T15:20:08.855Z,97509.16
2022-09-18T15:22:36.631Z,97506.22
2022-09-18T15:25:05.488Z,97493.91
2022-09-18T15:27:33.372Z,97495.31
2022-09-18T15:30:14.680Z,97483.72
2022-09-18T15:32:51.221Z,97505.50
2022-09-18T15:35:32.232Z,97493.63
2022-09-18T15:38:04.450Z,97495.09
2022-09-18T15:40:36.650Z,97492.63
2022-09-18T15:43:26.980Z,97498.53
2022-09-18T15:46:09.373Z,97480.59
2022-09-18T15:48:40.038Z,97491.75
2022-09-18T15:51:24.444Z,97479.56
2022-09-18T15:54:09.224Z,97488.03
2022-09-18T15:56:49.442Z,97483.66
2022-09-18T15:59:40.703Z,97475.81
2022-09-18T16:02:37.572Z,97474.34
2022-09-18T16:05:15.053Z,97466.75
2022-09-18T16:07:52.616Z,97462.59
2022-09-18T16:10:35.553Z,97473.16
2022-09-18T16:13:10.926Z,97464.28
2022-09-18T16:15:40.427Z,97468.44
2022-09-18T16:18:19.919Z,97462.63
2022-09-18T16:20:53.923Z,97462.44
2022-09-18T16:23:50.719Z,97457.03
2022-09-18T16:26:27.999Z,97456.19
2022-09-18T16:28:59.198Z,97456.81
2022-09-18T16:31:32.160Z,97446.69
2022-09-18T16:34:04.637Z,97445.88
2022-09-18T16:36:42.676Z,97446.50
2022-09-18T16:39:18.575Z,97443.38
2022-09-18T16:41:47.329Z,97429.53
2022-09-18T16:44:18.265Z,97434.28
2022-09-18T16:46:54.371Z,97436.56
2022-09-18T16:49:27.939Z,97434.47
2022-09-18T16:51:55.925Z,97430.34
2022-09-18T16:54:26.671Z,97434.91
2022-09-18T16:56:59.912Z,97431.41
2022-09-18T16:59:31.643Z,97432.38
2022-09-18T17:02:04.600Z,97429.13
2022-09-18T17:04:33.915Z,97435.72
2022-09-18T17:07:03.399Z,97424.56
2022-09-18T17:09:31.479Z,97421.88
2022-09-18T17:11:59.787Z,97419.81
2022-09-18T17:14:27.611Z,97421.88
2022-09-18T17:16:55.643Z,97418.75
2022-09-18T17:19:23.664Z,97417.72
2022-09-18T17:21:51.433Z,97407.97
2022-09-18T17:24:25.564Z,97413.13
2022-09-18T17:26:54.136Z,97412.97
2022-09-18T17:29:22.127Z,97407.34
2022-09-18T17:31:50.407Z,97406.78
2022-09-18T17:34:19.072Z,97403.03
2022-09-18T17:36:46.997Z,97406.13
2022-09-18T17:39:17.056Z,97397.63
2022-09-18T17:41:45.933Z,97411.09
2022-09-18T17:44:15.210Z,97402.19
2022-09-18T17:46:43.077Z,97399.84
2022-09-18T17:49:10.851Z,97389.56
2022-09-18T17:51:38.648Z,97396.59
2022-09-18T17:54:06.542Z,97398.69
2022-09-18T17:56:35.071Z,97398.25
2022-09-18T17:59:09.768Z,97389.38
2022-09-18T18:01:43.175Z,97391.16
2022-09-18T18:04:10.965Z,97392.88
2022-09-18T18:06:38.837Z,97396.59
2022-09-18T18:09:09.861Z,97391.41
2022-09-18T18:11:38.735Z,97397.44
2022-09-18T18:14:06.581Z,97393.28
2022-09-18T18:16:35.198Z,97401.13
2022-09-18T18:19:07.077Z,97407.50
2022-09-18T18:21:35.124Z,97404.44
2022-09-18T18:24:09.087Z,97411.25
2022-09-18T18:26:39.211Z,97411.19
2022-09-18T18:29:10.751Z,97399.66
2022-09-18T18:31:40.664Z,97416.13
2022-09-18T18:34:10.793Z,97431.91
2022-09-18T18:36:40.957Z,97426.59
2022-09-18T18:39:12.302Z,97415.03
2022-09-18T18:41:40.928Z,97413.72
2022-09-18T18:44:11.497Z,97416.53
2022-09-18T18:46:40.114Z,97409.50
2022-09-18T18:49:15.035Z,97421.53
2022-09-18T18:51:47.690Z,97421.44
2022-09-18T18:54:19.011Z,97417.31
2022-09-18T18:56:47.883Z,97420.47
2022-09-18T18:59:18.535Z,97426.09
2022-09-18T19:01:47.379Z,97420.44
2022-09-18T19:04:21.595Z,97433.38
2022-09-18T19:06:49.671Z,97429.56
2022-09-18T19:09:28.603Z,97442.13
2022-09-18T19:11:57.565Z,97433.84
2022-09-18T19:14:31.593Z,97422.94
2022-09-18T19:16:59.970Z,97422.94
2022-09-18T19:19:29.088Z,97422.88
2022-09-18T19:22:00.254Z,97416.31
2022-09-18T19:24:28.816Z,97424.28
2022-09-18T19:26:58.824Z,97417.41
2022-09-18T19:29:27.419Z,97427.78
2022-09-18T19:31:56.417Z,97425.53
2022-09-18T19:34:24.368Z,97446.97
2022-09-18T19:36:52.607Z,97439.09
2022-09-18T19:39:22.511Z,97441.06
2022-09-18T19:42:04.540Z,97436.25
2022-09-18T19:44:40.618Z,97445.09
2022-09-18T19:47:31.673Z,97452.41
2022-09-18T19:50:02.168Z,97447.34
2022-09-18T19:52:30.198Z,97455.25
2022-09-18T19:54:59.098Z,97464.88
2022-09-18T19:57:28.571Z,97466.00
2022-09-18T19:59:57.345Z,97455.25
2022-09-18T20:02:25.803Z,97464.88
2022-09-18T20:04:53.798Z,97475.28
2022-09-18T20:07:21.513Z,97476.84
2022-09-18T20:09:49.292Z,97453.97
2022-09-18T20:12:17.100Z,97474.09
2022-09-18T20:14:45.251Z,97465.97
2022-09-18T20:17:13.500Z,97475.47
2022-09-18T20:19:41.263Z,97479.50
2022-09-18T20:22:09.022Z,97494.91
2022-09-18T20:24:36.779Z,97488.03
2022-09-18T20:27:04.614Z,97478.88
2022-09-18T20:29:32.498Z,97490.84
2022-09-18T20:32:00.368Z,97477.75
2022-09-18T20:34:28.251Z,97473.28
2022-09-18T20:36:56.016Z,97475.97
2022-09-18T20:39:23.826Z,97456.84
2022-09-18T20:41:51.598Z,97464.59
2022-09-18T20:44:19.634Z,97451.91
2022-09-18T20:46:47.477Z,97439.22
2022-09-18T20:49:18.092Z,97427.50
2022-09-18T20:51:46.080Z,97429.91
2022-09-18T20:54:14.996Z,97422.69
2022-09-18T20:56:44.362Z,97427.94
2022-09-18T20:59:16.579Z,97424.97
2022-09-18T21:01:47.828Z,97427.03
2022-09-18T21:04:17.741Z,97427.41
2022-09-18T21:06:57.412Z,97431.53
2022-09-18T21:09:28.145Z,97423.78
2022-09-18T21:11:58.921Z,97419.31
2022-09-18T21:14:27.384Z,97419.72
2022-09-18T21:16:55.994Z,97426.16
2022-09-18T21:19:26.375Z,97425.31
2022-09-18T21:21:54.488Z,97429.38
2022-09-18T21:24:22.464Z,97441.38
2022-09-18T21:26:50.326Z,97430.44
2022-09-18T21:29:25.268Z,97425.84
2022-09-18T21:32:00.104Z,97430.81
2022-09-18T21:34:31.358Z,97437.19
2022-09-18T21:37:04.354Z,97434.53
2022-09-18T21:39:32.668Z,97430.06
2022-09-18T21:42:02.475Z,97431.94
2022-09-18T21:44:31.910Z,97425.00
2022-09-18T21:47:10.746Z,97433.88
2022-09-18T21:49:38.780Z,97433.94
2022-09-18T21:52:08.819Z,97435.06
2022-09-18T21:54:36.583Z,97428.84
2022-09-18T21:57:04.843Z,97438.81
2022-09-18T21:59:32.969Z,97443.03
2022-09-18T22:02:03.261Z,97437.25
2022-09-18T22:04:32.869Z,97446.97
2022-09-18T22:07:02.050Z,97451.88
2022-09-18T22:09:39.225Z,97446.34
2022-09-18T22:12:07.865Z,97456.44
2022-09-18T22:14:38.379Z,97454.44
2022-09-18T22:17:09.236Z,97457.34
2022-09-18T22:19:41.165Z,97467.28
2022-09-18T22:22:10.868Z,97465.63
2022-09-18T22:24:39.232Z,97466.91
2022-09-18T22:27:08.548Z,97482.00
2022-09-18T22:29:39.421Z,97495.94
2022-09-18T22:32:10.114Z,97502.41
2022-09-18T22:34:38.419Z,97496.06
2022-09-18T22:37:06.125Z,97550.41
2022-09-18T22:39:34.064Z,97550.38
2022-09-18T22:42:01.923Z,97556.69
2022-09-18T22:44:31.146Z,97570.19
2022-09-18T22:46:58.948Z,97579.25
2022-09-18T22:49:26.752Z,97586.81
2022-09-18T22:51:54.613Z,97579.50
2022-09-18T22:54:25.981Z,97601.81
2022-09-18T22:56:55.166Z,97594.28
2022-09-18T22:59:26.552Z,97597.13
2022-09-18T23:02:02.353Z,97607.44
2022-09-18T23:04:32.892Z,97602.53
2022-09-18T23:07:01.667Z,97598.53
2022-09-18T23:09:31.117Z,97597.53
2022-09-18T23:11:59.778Z,97594.84
2022-09-18T23:14:30.168Z,97602.50
2022-09-18T23:16:59.613Z,97595.16
2022-09-18T23:19:31.633Z,97597.50
2022-09-18T23:21:59.509Z,97597.66
2022-09-18T23:24:28.186Z,97591.81
2022-09-18T23:26:58.185Z,97599.47
2022-09-18T23:29:28.533Z,97584.81
2022-09-18T23:31:59.501Z,97577.16
2022-09-18T23:34:31.465Z,97602.34
2022-09-18T23:37:00.209Z,97606.31
2022-09-18T23:39:34.897Z,97610.50
2022-09-18T23:42:05.733Z,97616.84
2022-09-18T23:44:34.292Z,97619.16
2022-09-18T23:47:02.895Z,97621.13
2022-09-18T23:49:31.451Z,97616.16
2022-09-18T23:51:59.823Z,97615.84
2022-09-18T23:54:31.097Z,97619.28
2022-09-18T23:56:59.433Z,97636.97
2022-09-18T23:59:28.138Z,97630.47
